Aéroclub Castres-Mazamet
ACCUEIL




METAR
LFCK 170330Z AUTO 00000KT 0300 R14/0375N FZFG VV/// M03/M04 Q1036



Liens utiles


F.F.A
Météo France
OLIVIA
SIA
D.G.A.C

Bienvenue à l'aéroclub de Castres-Mazamet


** L'ensemble du Bureau et le Conseil d'Administration vous présentent leurs Meilleurs voeux pour l'année 2022 **


               


Actualités

 Renouvellement Cotisation au Club   
Publié le 15-Dec-2021    
Chers pilotes, Il est temps de renouveler sa cotisation au club et sa licence FFA. Merci de vous rapprocher du bureau rapidement. Vous pouvez également reprendre l'abonnement au journal "Info Pilotes". N'attendez pas!


 Nouveau Pilote   
Publié le 21-Nov-2021    
Un nouveau pilote au Club. Baptiste Lujan a réussi hier son PPLA. Bravo à lui, et bon vol!


 Moment de convivialité au Club   
Publié le 09-Nov-2021    
Bonjour à tous, Nous vous proposons de nous retrouver le dimanche 21 novembre pour un nouveau moment d’échanges accompagné de viennoiseries, café, ... et de quelques vols si le temps le permet! Merci de confirmer votre présence au plus tôt.


 Petit-déjeuner au Club   
Publié le 11-Oct-2021    
Dimanche 10 octobre, le Club a offert aux adhérents présents le petit déjeuner. L'occasion pour tous de partager de bons moments, et aussi de belles expériences. Une vingtaine de personnes étaient présentes. A renouveler!


Voir plus